Time;durP1;ratioP1;P1;durP2;ratioP2;P2;SDS_P1;SDS_P2;PMS_P1;PMS_P2;Temp;Humidity;BMP_temperature;BMP_pressure;BME280_temperature;BME280_humidity;BME280_pressure;Samples;Min_cycle;Max_cycle;Signal;HPM_P1;HPM_P2
2024/02/24 00:01:51;;;;;;;13.45;8.13;;;;;;;;;;5047143;28;20045;-55
2024/02/24 00:04:17;;;;;;;13.52;8.48;;;;;;;;;;5046774;28;20029;-49
2024/02/24 00:06:43;;;;;;;13.60;8.73;;;;;;;;;;5047473;28;20027;-50
2024/02/24 00:09:09;;;;;;;13.65;8.90;;;;;;;;;;5038982;28;20028;-53
2024/02/24 00:11:35;;;;;;;13.27;8.20;;;;;;;;;;5046759;28;20131;-51
2024/02/24 00:14:01;;;;;;;13.30;8.02;;;;;;;;;;5048476;28;20100;-54
2024/02/24 00:16:27;;;;;;;13.43;8.13;;;;;;;;;;5047130;28;20044;-52
2024/02/24 00:18:55;;;;;;;13.10;7.60;;;;;;;;;;5047234;28;20041;-52
2024/02/24 00:21:22;;;;;;;13.32;7.80;;;;;;;;;;5047049;28;20021;-51
2024/02/24 00:23:48;;;;;;;13.38;7.90;;;;;;;;;;5045877;28;20524;-53
2024/02/24 00:26:14;;;;;;;13.23;7.95;;;;;;;;;;5046957;28;20025;-54
2024/02/24 00:28:40;;;;;;;13.48;8.27;;;;;;;;;;5046961;28;20021;-52
2024/02/24 00:31:06;;;;;;;13.68;8.90;;;;;;;;;;5046847;28;20560;-52
2024/02/24 00:33:31;;;;;;;13.68;8.80;;;;;;;;;;5046943;28;20047;-55
2024/02/24 00:35:57;;;;;;;13.63;8.70;;;;;;;;;;5047099;28;20570;-53
2024/02/24 00:38:23;;;;;;;13.23;8.05;;;;;;;;;;5046441;28;20017;-53
2024/02/24 00:40:49;;;;;;;13.35;7.93;;;;;;;;;;5042655;28;20564;-48
2024/02/24 00:43:16;;;;;;;13.25;7.82;;;;;;;;;;5046700;28;20582;-52
2024/02/24 00:45:42;;;;;;;13.32;7.85;;;;;;;;;;5048228;28;20597;-51
2024/02/24 00:48:08;;;;;;;13.25;7.82;;;;;;;;;;5057423;22;20041;-51
2024/02/24 00:50:34;;;;;;;13.10;7.60;;;;;;;;;;5027928;28;20061;-54
2024/02/24 00:53:00;;;;;;;13.18;7.68;;;;;;;;;;5027943;28;20025;-55
2024/02/24 00:55:26;;;;;;;13.25;7.80;;;;;;;;;;5030115;28;20501;-51
2024/02/24 00:57:52;;;;;;;12.93;7.57;;;;;;;;;;5027019;28;20014;-52
2024/02/24 01:00:18;;;;;;;13.05;7.63;;;;;;;;;;5029373;28;20459;-53
2024/02/24 01:02:44;;;;;;;13.32;8.00;;;;;;;;;;5021556;28;20033;-54
2024/02/24 01:05:10;;;;;;;13.40;8.00;;;;;;;;;;5010149;28;20547;-55
2024/02/24 01:07:36;;;;;;;13.40;8.00;;;;;;;;;;5010595;28;20101;-52
2024/02/24 01:10:02;;;;;;;13.05;7.72;;;;;;;;;;5011070;28;20361;-51
2024/02/24 01:12:28;;;;;;;12.80;7.47;;;;;;;;;;5010508;28;20379;-53
2024/02/24 01:14:55;;;;;;;13.13;7.72;;;;;;;;;;5009750;28;20093;-55
2024/02/24 01:17:21;;;;;;;12.98;7.60;;;;;;;;;;5014915;28;20097;-51
2024/02/24 01:19:47;;;;;;;13.30;7.80;;;;;;;;;;5015155;28;20018;-50
2024/02/24 01:22:13;;;;;;;13.02;7.60;;;;;;;;;;5013941;28;20376;-52
2024/02/24 01:24:39;;;;;;;13.20;7.70;;;;;;;;;;5013322;28;20018;-50
2024/02/24 01:27:05;;;;;;;13.05;7.60;;;;;;;;;;5014760;28;20022;-53
2024/02/24 01:29:31;;;;;;;13.07;7.70;;;;;;;;;;5014954;28;20022;-57
2024/02/24 01:32:01;;;;;;;13.18;7.80;;;;;;;;;;5014284;28;20574;-53
2024/02/24 01:34:27;;;;;;;13.30;7.80;;;;;;;;;;5014553;28;20025;-54
2024/02/24 01:36:53;;;;;;;13.27;7.80;;;;;;;;;;5014533;28;20536;-57
2024/02/24 01:39:19;;;;;;;13.32;7.93;;;;;;;;;;5014262;28;20140;-52
2024/02/24 01:41:45;;;;;;;13.30;7.80;;;;;;;;;;5014284;28;20353;-55
2024/02/24 01:44:11;;;;;;;13.20;7.78;;;;;;;;;;5013936;28;20033;-53
2024/02/24 01:46:37;;;;;;;13.15;7.70;;;;;;;;;;5014287;28;20025;-55
2024/02/24 01:49:03;;;;;;;12.95;7.57;;;;;;;;;;5014159;28;20472;-57
2024/02/24 01:51:30;;;;;;;13.07;7.68;;;;;;;;;;5013989;28;20400;-54
2024/02/24 01:53:56;;;;;;;13.27;7.80;;;;;;;;;;5012725;28;20092;-55
2024/02/24 01:56:22;;;;;;;13.40;8.00;;;;;;;;;;5012843;28;20476;-57
2024/02/24 01:58:49;;;;;;;13.00;7.57;;;;;;;;;;5013587;28;20476;-54
2024/02/24 02:01:16;;;;;;;12.50;7.30;;;;;;;;;;5013934;28;20080;-56
2024/02/24 02:03:43;;;;;;;12.60;7.35;;;;;;;;;;5012659;28;20026;-56
2024/02/24 02:06:09;;;;;;;12.40;7.20;;;;;;;;;;5013944;28;20022;-57
2024/02/24 02:08:35;;;;;;;12.75;7.40;;;;;;;;;;5013835;28;20087;-54
2024/02/24 02:11:01;;;;;;;12.60;7.30;;;;;;;;;;5013910;28;20045;-55
2024/02/24 02:13:27;;;;;;;12.05;7.03;;;;;;;;;;5013745;28;20463;-54
2024/02/24 02:15:54;;;;;;;12.43;7.28;;;;;;;;;;5013761;28;20022;-57
2024/02/24 02:18:20;;;;;;;11.80;6.93;;;;;;;;;;5013915;28;20033;-55
2024/02/24 02:20:49;;;;;;;12.50;7.30;;;;;;;;;;5013794;28;20025;-53
2024/02/24 02:23:15;;;;;;;12.77;7.47;;;;;;;;;;5014811;28;20111;-53
2024/02/24 02:25:41;;;;;;;13.13;7.70;;;;;;;;;;5013848;28;20491;-56
2024/02/24 02:28:07;;;;;;;12.73;7.40;;;;;;;;;;5012943;28;20491;-55
2024/02/24 02:30:33;;;;;;;12.55;7.30;;;;;;;;;;5013373;28;20375;-52
2024/02/24 02:32:59;;;;;;;12.30;7.15;;;;;;;;;;5013359;28;20475;-55
2024/02/24 02:35:25;;;;;;;12.40;7.25;;;;;;;;;;5030740;28;20507;-52
2024/02/24 02:37:51;;;;;;;12.40;7.20;;;;;;;;;;5051522;28;20138;-50
2024/02/24 02:40:17;;;;;;;12.60;7.38;;;;;;;;;;5052948;28;20100;-55
2024/02/24 02:42:43;;;;;;;13.02;7.68;;;;;;;;;;5052574;28;20107;-54
2024/02/24 02:45:10;;;;;;;12.98;7.57;;;;;;;;;;5052909;28;20406;-53
2024/02/24 02:47:37;;;;;;;13.18;7.70;;;;;;;;;;5052667;28;20020;-54
2024/02/24 02:50:03;;;;;;;12.73;7.40;;;;;;;;;;5052687;28;20021;-56
2024/02/24 02:52:29;;;;;;;12.60;7.35;;;;;;;;;;5050920;28;20021;-54
2024/02/24 02:54:55;;;;;;;12.73;7.43;;;;;;;;;;5052519;28;20017;-52
2024/02/24 02:57:21;;;;;;;12.73;7.40;;;;;;;;;;5052373;28;20024;-54
2024/02/24 02:59:47;;;;;;;12.05;7.03;;;;;;;;;;5051275;28;20051;-53
2024/02/24 03:02:13;;;;;;;12.10;7.05;;;;;;;;;;5052421;28;20479;-54
2024/02/24 03:04:39;;;;;;;12.52;7.30;;;;;;;;;;5052526;28;20096;-51
2024/02/24 03:07:05;;;;;;;12.40;7.20;;;;;;;;;;5052409;28;20032;-57
2024/02/24 03:09:31;;;;;;;12.63;7.40;;;;;;;;;;5052227;28;20029;-54
2024/02/24 03:11:57;;;;;;;12.38;7.20;;;;;;;;;;5051959;28;20027;-55
2024/02/24 03:14:23;;;;;;;12.55;7.30;;;;;;;;;;5052218;28;20459;-54
2024/02/24 03:16:49;;;;;;;12.68;7.40;;;;;;;;;;5052197;28;20016;-55
2024/02/24 03:19:15;;;;;;;12.65;7.40;;;;;;;;;;5052019;28;20028;-58
2024/02/24 03:21:41;;;;;;;12.90;7.50;;;;;;;;;;5052023;28;20163;-53
2024/02/24 03:24:07;;;;;;;12.65;7.40;;;;;;;;;;5032246;28;20031;-58
2024/02/24 03:26:33;;;;;;;12.90;7.50;;;;;;;;;;5032177;28;20396;-55
2024/02/24 03:28:59;;;;;;;12.68;7.38;;;;;;;;;;5030666;28;20021;-55
2024/02/24 03:31:26;;;;;;;12.73;7.40;;;;;;;;;;5031919;28;20172;-56
2024/02/24 03:33:54;;;;;;;12.85;7.50;;;;;;;;;;5031814;28;20079;-57
2024/02/24 03:36:20;;;;;;;12.55;7.35;;;;;;;;;;5031954;28;20020;-53
2024/02/24 03:38:46;;;;;;;12.50;7.30;;;;;;;;;;5030306;28;20021;-52
2024/02/24 03:41:12;;;;;;;12.10;7.10;;;;;;;;;;5031303;28;20025;-52
2024/02/24 03:43:39;;;;;;;12.45;7.30;;;;;;;;;;5031719;28;20048;-55
2024/02/24 03:46:05;;;;;;;12.93;7.50;;;;;;;;;;5031906;28;20096;-55
2024/02/24 03:48:32;;;;;;;12.90;7.47;;;;;;;;;;5031643;28;20108;-54
2024/02/24 03:50:58;;;;;;;12.57;7.30;;;;;;;;;;5031664;28;20105;-50
2024/02/24 03:53:25;;;;;;;12.50;7.30;;;;;;;;;;5031148;28;20096;-57
2024/02/24 03:55:51;;;;;;;12.20;7.10;;;;;;;;;;5030884;28;20025;-56
2024/02/24 03:58:17;;;;;;;12.05;7.00;;;;;;;;;;5031552;28;20079;-54
2024/02/24 04:00:43;;;;;;;12.20;7.07;;;;;;;;;;5031486;28;20018;-52
2024/02/24 04:03:09;;;;;;;12.40;7.20;;;;;;;;;;5031489;28;20371;-54
2024/02/24 04:05:35;;;;;;;12.70;7.40;;;;;;;;;;5032100;28;20013;-56
2024/02/24 04:08:01;;;;;;;12.60;7.30;;;;;;;;;;5032189;28;20067;-57
2024/02/24 04:10:27;;;;;;;12.68;7.35;;;;;;;;;;5032419;28;20021;-58
2024/02/24 04:12:53;;;;;;;12.60;7.30;;;;;;;;;;5033518;28;20036;-56
2024/02/24 04:15:19;;;;;;;12.50;7.30;;;;;;;;;;5035495;28;20502;-54
2024/02/24 04:17:46;;;;;;;12.85;7.40;;;;;;;;;;5031278;28;20025;-55
2024/02/24 04:20:13;;;;;;;12.40;7.20;;;;;;;;;;5031096;28;20379;-56
2024/02/24 04:22:39;;;;;;;12.38;7.20;;;;;;;;;;5029634;28;20018;-55
2024/02/24 04:25:05;;;;;;;12.45;7.20;;;;;;;;;;5031024;28;20084;-53
2024/02/24 04:27:32;;;;;;;12.60;7.30;;;;;;;;;;5029410;28;20022;-53
2024/02/24 04:29:58;;;;;;;12.20;7.10;;;;;;;;;;5030921;28;20013;-56
2024/02/24 04:32:24;;;;;;;12.60;7.30;;;;;;;;;;5030725;28;20087;-53
2024/02/24 04:34:49;;;;;;;12.43;7.22;;;;;;;;;;5030813;28;20024;-55
2024/02/24 04:37:16;;;;;;;12.50;7.25;;;;;;;;;;5030960;28;20472;-55
2024/02/24 04:39:42;;;;;;;12.65;7.40;;;;;;;;;;5030860;28;20040;-56
2024/02/24 04:42:08;;;;;;;12.70;7.40;;;;;;;;;;5030527;28;20467;-53
2024/02/24 04:44:34;;;;;;;12.60;7.30;;;;;;;;;;5030718;28;20033;-55
2024/02/24 04:47:00;;;;;;;12.50;7.40;;;;;;;;;;5030871;28;20060;-51
2024/02/24 04:49:26;;;;;;;12.52;7.30;;;;;;;;;;5030727;28;20125;-53
2024/02/24 04:51:52;;;;;;;12.23;7.10;;;;;;;;;;5029046;28;20680;-55
2024/02/24 04:54:18;;;;;;;12.80;7.40;;;;;;;;;;5030963;28;20017;-50
2024/02/24 04:56:44;;;;;;;12.75;7.43;;;;;;;;;;5029949;28;20017;-52
2024/02/24 04:59:10;;;;;;;12.90;7.53;;;;;;;;;;5030997;28;20025;-53
2024/02/24 05:01:36;;;;;;;12.90;7.47;;;;;;;;;;5030718;28;20021;-53
2024/02/24 05:04:02;;;;;;;12.75;7.47;;;;;;;;;;5030839;28;20032;-54
2024/02/24 05:06:28;;;;;;;12.70;7.40;;;;;;;;;;5031213;28;20029;-54
2024/02/24 05:08:55;;;;;;;12.45;7.28;;;;;;;;;;5030918;28;20053;-59
2024/02/24 05:11:21;;;;;;;12.80;7.40;;;;;;;;;;5029625;28;20068;-55
2024/02/24 05:13:47;;;;;;;13.35;7.90;;;;;;;;;;5030833;28;20024;-51
2024/02/24 05:16:14;;;;;;;13.05;7.65;;;;;;;;;;5030611;28;20018;-53
2024/02/24 05:18:40;;;;;;;12.80;7.47;;;;;;;;;;5030752;28;20353;-53
2024/02/24 05:21:06;;;;;;;13.07;7.60;;;;;;;;;;5030456;28;20383;-57
2024/02/24 05:23:32;;;;;;;12.75;7.43;;;;;;;;;;5030156;28;20025;-53
2024/02/24 05:25:58;;;;;;;13.20;7.65;;;;;;;;;;5030055;28;20048;-53
2024/02/24 05:28:24;;;;;;;12.82;7.50;;;;;;;;;;5030100;28;20026;-53
2024/02/24 05:30:51;;;;;;;12.77;7.47;;;;;;;;;;5030105;28;20026;-51
2024/02/24 05:33:18;;;;;;;12.80;7.40;;;;;;;;;;5030078;28;20540;-57
2024/02/24 05:35:44;;;;;;;12.85;7.50;;;;;;;;;;5029954;28;20022;-58
2024/02/24 05:38:10;;;;;;;13.00;7.60;;;;;;;;;;5029861;28;20371;-55
2024/02/24 05:40:36;;;;;;;12.82;7.43;;;;;;;;;;5028813;28;20017;-54
2024/02/24 05:43:03;;;;;;;12.73;7.45;;;;;;;;;;5029808;28;20021;-52
2024/02/24 05:45:29;;;;;;;12.48;7.25;;;;;;;;;;5028794;28;20028;-53
2024/02/24 05:47:56;;;;;;;12.55;7.30;;;;;;;;;;5029929;28;20033;-51
2024/02/24 05:50:22;;;;;;;12.38;7.22;;;;;;;;;;5030051;28;20025;-53
2024/02/24 05:52:48;;;;;;;12.38;7.22;;;;;;;;;;5029731;28;20017;-55
2024/02/24 05:55:15;;;;;;;12.20;7.15;;;;;;;;;;5030032;28;20045;-55
2024/02/24 05:57:42;;;;;;;12.23;7.43;;;;;;;;;;5028671;28;20017;-55
2024/02/24 06:00:11;;;;;;;12.50;7.30;;;;;;;;;;5029884;28;20052;-56
2024/02/24 06:02:37;;;;;;;11.77;6.85;;;;;;;;;;5030427;28;20017;-53
2024/02/24 06:05:03;;;;;;;11.90;7.00;;;;;;;;;;5033760;28;20075;-52
2024/02/24 06:07:29;;;;;;;12.27;7.13;;;;;;;;;;5033630;28;20017;-54
2024/02/24 06:09:55;;;;;;;12.40;7.20;;;;;;;;;;5033671;28;20044;-55
2024/02/24 06:12:21;;;;;;;12.02;7.03;;;;;;;;;;5032295;28;20021;-55
2024/02/24 06:14:47;;;;;;;11.80;6.90;;;;;;;;;;5033666;28;20475;-53
2024/02/24 06:17:13;;;;;;;12.00;7.00;;;;;;;;;;5033438;28;20075;-56
2024/02/24 06:19:39;;;;;;;12.35;7.20;;;;;;;;;;5032304;28;20476;-57
2024/02/24 06:22:05;;;;;;;12.27;7.15;;;;;;;;;;5024923;28;20036;-58
2024/02/24 06:24:31;;;;;;;12.40;7.20;;;;;;;;;;5025924;28;20144;-56
2024/02/24 06:26:56;;;;;;;12.20;7.15;;;;;;;;;;5017116;28;20108;-52
2024/02/24 06:29:23;;;;;;;12.02;7.05;;;;;;;;;;5028182;28;20014;-52
2024/02/24 06:31:49;;;;;;;12.10;7.10;;;;;;;;;;5013254;28;20022;-54
2024/02/24 06:34:15;;;;;;;11.88;6.93;;;;;;;;;;5013612;28;20097;-50
2024/02/24 06:36:41;;;;;;;11.45;6.75;;;;;;;;;;5011998;28;20029;-56
2024/02/24 06:39:07;;;;;;;11.50;6.70;;;;;;;;;;5013119;28;20484;-52
2024/02/24 06:41:33;;;;;;;11.80;6.90;;;;;;;;;;5013204;28;20353;-56
2024/02/24 06:43:59;;;;;;;11.45;6.68;;;;;;;;;;5012999;28;20080;-55
2024/02/24 06:46:25;;;;;;;12.07;7.00;;;;;;;;;;5012892;28;20021;-53
2024/02/24 06:48:51;;;;;;;12.05;7.00;;;;;;;;;;5026343;23;20042;-50
2024/02/24 06:51:17;;;;;;;11.50;6.70;;;;;;;;;;5012478;28;20117;-47
2024/02/24 06:53:43;;;;;;;11.45;6.70;;;;;;;;;;5012462;28;20065;-51
2024/02/24 06:56:09;;;;;;;11.68;6.80;;;;;;;;;;5027982;28;20029;-49
2024/02/24 06:58:36;;;;;;;11.50;6.82;;;;;;;;;;5012564;28;20101;-51
2024/02/24 07:01:05;;;;;;;11.55;6.78;;;;;;;;;;5012777;28;20025;-50
2024/02/24 07:03:32;;;;;;;11.60;6.75;;;;;;;;;;5012684;28;20052;-51
2024/02/24 07:05:59;;;;;;;11.57;6.75;;;;;;;;;;5012623;28;20037;-51
2024/02/24 07:08:26;;;;;;;11.57;6.75;;;;;;;;;;5011273;28;20026;-49
2024/02/24 07:10:52;;;;;;;11.65;6.82;;;;;;;;;;5012807;28;20022;-50
2024/02/24 07:13:17;;;;;;;11.88;6.90;;;;;;;;;;5011846;28;20022;-50
2024/02/24 07:15:43;;;;;;;12.10;7.00;;;;;;;;;;5012669;28;20087;-51
2024/02/24 07:18:09;;;;;;;11.55;6.72;;;;;;;;;;5012875;28;20014;-51
2024/02/24 07:20:35;;;;;;;11.93;6.95;;;;;;;;;;5011953;28;20026;-51
2024/02/24 07:23:01;;;;;;;11.88;6.93;;;;;;;;;;5011464;28;20106;-51
2024/02/24 07:25:27;;;;;;;12.10;7.00;;;;;;;;;;5012668;28;20022;-53
2024/02/24 07:27:54;;;;;;;11.90;6.95;;;;;;;;;;5011008;28;20072;-50
2024/02/24 07:30:20;;;;;;;11.73;6.85;;;;;;;;;;5010887;28;20022;-50
2024/02/24 07:32:46;;;;;;;12.20;7.13;;;;;;;;;;5011952;28;20380;-49
2024/02/24 07:35:12;;;;;;;11.70;6.80;;;;;;;;;;5010788;28;20022;-56
2024/02/24 07:37:38;;;;;;;11.80;6.90;;;;;;;;;;5011733;28;20021;-50
2024/02/24 07:40:04;;;;;;;12.43;7.22;;;;;;;;;;5012197;28;20615;-52
2024/02/24 07:42:30;;;;;;;12.10;7.07;;;;;;;;;;5011777;28;20041;-53
2024/02/24 07:44:57;;;;;;;11.75;6.85;;;;;;;;;;5011850;28;20030;-51
2024/02/24 07:47:23;;;;;;;11.63;6.80;;;;;;;;;;5011632;28;20468;-51
2024/02/24 07:49:49;;;;;;;11.88;6.95;;;;;;;;;;5011591;28;20045;-53
2024/02/24 07:52:15;;;;;;;11.80;6.90;;;;;;;;;;5011140;28;20372;-49
2024/02/24 07:54:41;;;;;;;12.43;7.30;;;;;;;;;;5011467;28;20029;-50
2024/02/24 07:57:07;;;;;;;12.05;7.05;;;;;;;;;;5011564;28;20018;-49
2024/02/24 07:59:33;;;;;;;12.18;7.10;;;;;;;;;;5011330;28;20025;-51
2024/02/24 08:01:59;;;;;;;11.82;6.90;;;;;;;;;;5011316;28;20025;-50
2024/02/24 08:04:25;;;;;;;12.40;7.20;;;;;;;;;;5011545;28;20079;-52
2024/02/24 08:06:51;;;;;;;12.18;7.10;;;;;;;;;;5010051;28;20113;-50
2024/02/24 08:09:17;;;;;;;12.32;7.20;;;;;;;;;;5011278;28;20022;-51
2024/02/24 08:11:43;;;;;;;12.48;7.30;;;;;;;;;;5011295;28;20026;-55
2024/02/24 08:14:09;;;;;;;12.48;7.30;;;;;;;;;;5011331;28;20069;-50
2024/02/24 08:16:35;;;;;;;12.07;7.07;;;;;;;;;;5006137;28;20444;-51
2024/02/24 08:19:02;;;;;;;12.07;7.10;;;;;;;;;;4997504;28;20023;-51
2024/02/24 08:21:31;;;;;;;12.20;7.00;;;;;;;;;;5000465;28;20046;-52
2024/02/24 08:23:57;;;;;;;11.80;6.90;;;;;;;;;;4991212;28;20026;-49
2024/02/24 08:26:23;;;;;;;11.32;6.65;;;;;;;;;;5006590;28;20037;-50
2024/02/24 08:28:49;;;;;;;11.65;6.78;;;;;;;;;;5010967;28;20021;-53
2024/02/24 08:31:15;;;;;;;11.88;6.95;;;;;;;;;;5042764;28;20480;-52
2024/02/24 08:33:41;;;;;;;11.70;6.88;;;;;;;;;;5004984;28;20085;-51
2024/02/24 08:36:08;;;;;;;11.63;6.82;;;;;;;;;;4990143;28;20029;-50
2024/02/24 08:38:34;;;;;;;11.82;7.00;;;;;;;;;;4990026;28;20157;-47
2024/02/24 08:41:00;;;;;;;11.35;6.70;;;;;;;;;;4991176;28;20045;-52
2024/02/24 08:43:26;;;;;;;11.70;6.82;;;;;;;;;;4991120;28;20049;-48
2024/02/24 08:45:52;;;;;;;11.75;6.90;;;;;;;;;;5011208;28;20467;-54
2024/02/24 08:48:18;;;;;;;11.85;6.90;;;;;;;;;;5010669;28;20125;-53
2024/02/24 08:50:44;;;;;;;11.65;6.88;;;;;;;;;;5009618;28;20117;-55
2024/02/24 08:53:10;;;;;;;11.70;6.88;;;;;;;;;;5010329;28;20101;-55
2024/02/24 08:55:36;;;;;;;12.25;7.15;;;;;;;;;;5010630;28;20026;-55
2024/02/24 08:58:02;;;;;;;11.82;6.90;;;;;;;;;;5010129;28;20022;-55
2024/02/24 09:00:28;;;;;;;11.80;6.88;;;;;;;;;;5010170;28;20026;-58
2024/02/24 09:02:54;;;;;;;11.50;6.75;;;;;;;;;;5010341;28;20037;-57
2024/02/24 09:05:21;;;;;;;11.70;6.88;;;;;;;;;;5010349;28;20369;-55
2024/02/24 09:07:47;;;;;;;11.50;6.70;;;;;;;;;;5010197;28;20030;-52
2024/02/24 09:10:13;;;;;;;11.18;6.57;;;;;;;;;;5010440;28;20026;-56
2024/02/24 09:12:39;;;;;;;11.75;7.00;;;;;;;;;;5005625;28;20116;-55
2024/02/24 09:15:06;;;;;;;11.90;6.97;;;;;;;;;;5006556;28;20041;-57
2024/02/24 09:17:32;;;;;;;11.77;6.88;;;;;;;;;;5004593;28;20025;-56
2024/02/24 09:19:58;;;;;;;12.07;6.90;;;;;;;;;;5008874;28;20026;-55
2024/02/24 09:22:25;;;;;;;11.73;6.85;;;;;;;;;;5010069;28;20037;-54
2024/02/24 09:24:50;;;;;;;11.60;6.80;;;;;;;;;;5010232;28;20438;-52
2024/02/24 09:27:16;;;;;;;11.60;6.80;;;;;;;;;;5010069;28;20022;-53
2024/02/24 09:29:42;;;;;;;11.68;6.80;;;;;;;;;;5010146;28;20022;-56
2024/02/24 09:32:08;;;;;;;11.80;6.88;;;;;;;;;;5009827;28;20034;-52
2024/02/24 09:34:34;;;;;;;11.35;6.60;;;;;;;;;;5010097;28;20033;-52
2024/02/24 09:37:05;;;;;;;11.23;6.55;;;;;;;;;;5008881;28;20046;-55
2024/02/24 09:39:31;;;;;;;12.00;7.07;;;;;;;;;;5014022;28;20021;-53
2024/02/24 09:42:00;;;;;;;11.40;6.70;;;;;;;;;;5012784;28;20033;-54
2024/02/24 09:44:29;;;;;;;12.13;7.35;;;;;;;;;;5014324;28;20476;-53
2024/02/24 09:46:59;;;;;;;11.70;6.80;;;;;;;;;;5010377;28;20088;-52
2024/02/24 09:49:27;;;;;;;12.20;7.10;;;;;;;;;;5004692;28;20033;-54
2024/02/24 09:51:53;;;;;;;10.88;6.38;;;;;;;;;;5036208;28;20399;-51
2024/02/24 09:54:19;;;;;;;11.13;6.50;;;;;;;;;;5013339;28;20026;-51
2024/02/24 09:56:46;;;;;;;11.23;6.57;;;;;;;;;;5013664;28;20046;-53
2024/02/24 09:59:12;;;;;;;11.00;6.43;;;;;;;;;;5013179;28;20028;-52
2024/02/24 10:01:38;;;;;;;10.88;6.30;;;;;;;;;;5011865;28;20112;-50
2024/02/24 10:04:04;;;;;;;10.80;6.35;;;;;;;;;;5013140;28;20611;-50
2024/02/24 10:06:34;;;;;;;10.50;6.20;;;;;;;;;;5013374;28;20080;-53
2024/02/24 10:09:00;;;;;;;11.30;6.60;;;;;;;;;;5013044;28;20045;-50
2024/02/24 10:11:26;;;;;;;11.07;6.50;;;;;;;;;;5011989;28;20034;-52
2024/02/24 10:13:53;;;;;;;11.18;6.53;;;;;;;;;;5013272;28;20022;-54
2024/02/24 10:16:20;;;;;;;11.20;6.53;;;;;;;;;;5013114;28;20107;-50
2024/02/24 10:18:47;;;;;;;11.40;6.70;;;;;;;;;;5013129;28;20030;-52
2024/02/24 10:21:13;;;;;;;11.43;6.70;;;;;;;;;;5012693;28;20061;-53
2024/02/24 10:23:39;;;;;;;11.40;6.70;;;;;;;;;;5013085;28;20455;-51
2024/02/24 10:26:05;;;;;;;11.30;6.60;;;;;;;;;;5013503;28;20544;-53
2024/02/24 10:28:32;;;;;;;10.90;6.40;;;;;;;;;;5012260;28;20101;-51
2024/02/24 10:30:59;;;;;;;11.77;6.90;;;;;;;;;;5012167;28;20128;-53
2024/02/24 10:33:25;;;;;;;12.10;6.70;;;;;;;;;;5011493;28;20022;-54
2024/02/24 10:35:51;;;;;;;14.15;10.32;;;;;;;;;;5011381;28;20131;-53
2024/02/24 10:38:17;;;;;;;26.30;24.10;;;;;;;;;;5011406;28;20029;-53
2024/02/24 10:40:44;;;;;;;29.55;27.15;;;;;;;;;;5011735;28;20032;-55
2024/02/24 10:43:10;;;;;;;29.25;26.95;;;;;;;;;;5009929;28;20076;-54
2024/02/24 10:45:36;;;;;;;28.02;25.73;;;;;;;;;;5011086;28;20041;-53
2024/02/24 10:48:02;;;;;;;27.55;25.25;;;;;;;;;;5010791;28;20573;-51
2024/02/24 10:50:28;;;;;;;26.88;24.67;;;;;;;;;;5012374;28;20026;-51
2024/02/24 10:52:55;;;;;;;26.63;24.42;;;;;;;;;;5012398;28;20469;-53
2024/02/24 10:55:23;;;;;;;27.92;25.63;;;;;;;;;;5012885;28;20022;-53
2024/02/24 10:57:51;;;;;;;27.00;24.70;;;;;;;;;;5012521;28;20105;-55
2024/02/24 11:00:30;;;;;;;26.17;23.98;;;;;;;;;;5012595;28;20057;-52
2024/02/24 11:02:55;;;;;;;;;;;;;;;;;;5012594;28;20030;-52
2024/02/24 11:05:21;;;;;;;22.88;20.88;;;;;;;;;;5012114;28;20379;-53
2024/02/24 11:07:47;;;;;;;22.45;20.45;;;;;;;;;;5010732;28;20049;-55
2024/02/24 11:10:16;;;;;;;21.75;19.75;;;;;;;;;;5013341;28;20030;-55
2024/02/24 11:12:41;;;;;;;22.08;20.08;;;;;;;;;;5011864;28;20026;-56
2024/02/24 11:15:08;;;;;;;22.05;20.05;;;;;;;;;;5011928;28;20032;-55
2024/02/24 11:17:46;;;;;;;21.67;19.67;;;;;;;;;;5011981;28;20159;-55
2024/02/24 11:20:12;;;;;;;21.58;19.58;;;;;;;;;;5011578;28;20334;-55
2024/02/24 11:22:38;;;;;;;20.90;18.90;;;;;;;;;;5008451;28;20030;-53
2024/02/24 11:25:05;;;;;;;20.75;18.85;;;;;;;;;;5018391;28;20029;-51
2024/02/24 11:27:32;;;;;;;20.83;18.92;;;;;;;;;;5003684;28;20531;-52
2024/02/24 11:29:58;;;;;;;20.25;18.35;;;;;;;;;;5011513;28;20582;-50
2024/02/24 11:32:24;;;;;;;20.70;18.80;;;;;;;;;;5011091;28;20022;-53
2024/02/24 11:34:50;;;;;;;21.52;19.40;;;;;;;;;;5003268;28;20021;-55
2024/02/24 11:37:20;;;;;;;21.13;19.23;;;;;;;;;;5011611;28;20539;-53
2024/02/24 11:39:47;;;;;;;20.42;18.52;;;;;;;;;;5011673;28;20113;-51
2024/02/24 11:42:13;;;;;;;20.35;18.45;;;;;;;;;;5011617;28;20505;-51
2024/02/24 11:44:45;;;;;;;20.00;18.10;;;;;;;;;;5011513;28;20119;-52
2024/02/24 11:47:12;;;;;;;19.95;18.05;;;;;;;;;;5011426;28;20030;-52
2024/02/24 11:49:47;;;;;;;20.67;18.77;;;;;;;;;;5011525;28;20034;-54
2024/02/24 11:52:13;;;;;;;20.25;18.35;;;;;;;;;;5010923;28;20496;-52
2024/02/24 11:54:40;;;;;;;20.15;18.23;;;;;;;;;;5011512;28;20022;-49
2024/02/24 11:57:06;;;;;;;18.02;16.23;;;;;;;;;;5011695;28;20053;-48
2024/02/24 11:59:32;;;;;;;19.48;17.67;;;;;;;;;;5010983;28;20025;-51
2024/02/24 12:01:58;;;;;;;18.80;17.00;;;;;;;;;;5010665;28;20108;-53
2024/02/24 12:04:25;;;;;;;20.20;18.30;;;;;;;;;;5008257;28;20485;-50
2024/02/24 12:06:51;;;;;;;19.73;17.83;;;;;;;;;;4999973;28;20026;-48
2024/02/24 12:09:17;;;;;;;18.75;16.95;;;;;;;;;;5001340;28;20049;-51
2024/02/24 12:11:43;;;;;;;16.50;14.80;;;;;;;;;;5000176;28;20023;-53
2024/02/24 12:14:09;;;;;;;15.98;14.27;;;;;;;;;;5007536;28;20021;-50
2024/02/24 12:16:37;;;;;;;15.55;13.75;;;;;;;;;;5010889;28;20029;-51
2024/02/24 12:19:04;;;;;;;15.20;11.77;;;;;;;;;;5010747;28;20018;-54
2024/02/24 12:21:30;;;;;;;15.77;12.10;;;;;;;;;;5011006;28;20034;-53
2024/02/24 12:23:59;;;;;;;13.90;8.88;;;;;;;;;;5010878;28;20544;-54
2024/02/24 12:26:26;;;;;;;13.15;7.75;;;;;;;;;;5010866;28;20033;-47
2024/02/24 12:28:52;;;;;;;13.60;8.50;;;;;;;;;;5010553;28;20062;-52
2024/02/24 12:31:18;;;;;;;13.35;8.00;;;;;;;;;;5010599;28;20408;-54
2024/02/24 12:33:45;;;;;;;11.95;7.00;;;;;;;;;;5010436;28;20044;-51
2024/02/24 12:36:12;;;;;;;11.88;6.90;;;;;;;;;;5010887;28;20097;-49
2024/02/24 12:38:39;;;;;;;13.38;7.63;;;;;;;;;;5009061;28;20029;-56
2024/02/24 12:41:09;;;;;;;11.45;6.70;;;;;;;;;;5010229;28;20097;-53
2024/02/24 12:43:36;;;;;;;11.20;6.60;;;;;;;;;;5010246;28;20025;-52
2024/02/24 12:46:02;;;;;;;10.77;6.28;;;;;;;;;;5009363;28;20546;-52
2024/02/24 12:48:28;;;;;;;13.50;7.10;;;;;;;;;;5027366;22;20060;-56
2024/02/24 12:50:55;;;;;;;11.93;6.97;;;;;;;;;;5008858;28;20117;-54
2024/02/24 12:53:21;;;;;;;11.60;6.80;;;;;;;;;;5008957;28;20021;-54
2024/02/24 12:55:48;;;;;;;11.18;6.50;;;;;;;;;;5009456;28;20022;-55
2024/02/24 12:58:14;;;;;;;11.05;6.47;;;;;;;;;;5005483;28;20054;-55
2024/02/24 13:00:40;;;;;;;11.43;6.97;;;;;;;;;;4989531;28;20102;-52
2024/02/24 13:03:06;;;;;;;10.57;6.20;;;;;;;;;;4989228;28;20022;-55
2024/02/24 13:05:33;;;;;;;11.10;6.50;;;;;;;;;;4989399;28;20384;-55
2024/02/24 13:07:59;;;;;;;10.70;6.25;;;;;;;;;;4988676;28;20039;-57
2024/02/24 13:10:25;;;;;;;10.80;6.30;;;;;;;;;;4990704;28;20030;-55
2024/02/24 13:12:51;;;;;;;10.50;6.18;;;;;;;;;;4990079;28;20457;-57
2024/02/24 13:15:17;;;;;;;10.40;6.15;;;;;;;;;;4990748;28;20074;-59
2024/02/24 13:17:43;;;;;;;10.55;6.22;;;;;;;;;;4991296;28;20046;-58
2024/02/24 13:20:10;;;;;;;10.60;6.30;;;;;;;;;;5010129;28;20053;-54
2024/02/24 13:22:40;;;;;;;10.95;6.38;;;;;;;;;;5009861;28;20473;-56
2024/02/24 13:25:06;;;;;;;10.35;6.10;;;;;;;;;;5010245;28;20574;-56
2024/02/24 13:27:32;;;;;;;10.55;6.20;;;;;;;;;;5010293;28;20030;-51
2024/02/24 13:29:58;;;;;;;10.90;6.40;;;;;;;;;;5009604;28;20038;-51
2024/02/24 13:32:24;;;;;;;10.05;5.90;;;;;;;;;;5009291;28;20188;-56
2024/02/24 13:34:50;;;;;;;11.80;7.03;;;;;;;;;;5009568;28;20468;-52
2024/02/24 13:37:17;;;;;;;9.95;5.88;;;;;;;;;;5009888;28;20063;-51
2024/02/24 13:39:46;;;;;;;10.20;6.00;;;;;;;;;;5009288;28;20053;-56
2024/02/24 13:42:12;;;;;;;10.40;6.10;;;;;;;;;;5009217;28;20080;-56
2024/02/24 13:44:38;;;;;;;9.95;5.90;;;;;;;;;;5007597;28;20026;-54
2024/02/24 13:47:06;;;;;;;9.88;5.80;;;;;;;;;;5023767;28;20086;-52
2024/02/24 13:49:32;;;;;;;10.17;5.97;;;;;;;;;;5029067;28;20033;-61
2024/02/24 13:51:58;;;;;;;10.05;5.95;;;;;;;;;;5028893;28;20284;-60
2024/02/24 13:54:31;;;;;;;10.20;6.00;;;;;;;;;;5028861;28;20021;-57
2024/02/24 13:56:57;;;;;;;10.60;6.13;;;;;;;;;;5028508;28;20176;-58
2024/02/24 13:59:24;;;;;;;10.00;5.90;;;;;;;;;;5028297;28;20029;-57
2024/02/24 14:01:50;;;;;;;10.23;6.00;;;;;;;;;;5028116;28;20160;-58
2024/02/24 14:04:16;;;;;;;9.73;5.80;;;;;;;;;;5028385;28;20079;-52
2024/02/24 14:06:42;;;;;;;10.50;6.13;;;;;;;;;;5028796;28;20036;-55
2024/02/24 14:09:09;;;;;;;10.70;6.20;;;;;;;;;;5028817;28;20430;-53
2024/02/24 14:11:36;;;;;;;11.05;6.47;;;;;;;;;;5028592;28;20125;-55
2024/02/24 14:14:02;;;;;;;11.48;6.78;;;;;;;;;;5028545;28;20120;-55
2024/02/24 14:16:28;;;;;;;11.75;6.85;;;;;;;;;;5028817;28;20504;-55
2024/02/24 14:18:54;;;;;;;11.80;6.90;;;;;;;;;;5012006;28;20048;-55
2024/02/24 14:21:21;;;;;;;12.55;7.10;;;;;;;;;;4999686;28;20026;-55
2024/02/24 14:23:47;;;;;;;12.38;7.30;;;;;;;;;;5009368;28;20481;-53